createdAt,value
2022-08-31T00:01:00.212Z,2.50
2022-08-31T00:03:41.234Z,2.55
2022-08-31T00:06:08.478Z,2.30
2022-08-31T00:08:34.201Z,2.17
2022-08-31T00:10:58.188Z,2.00
2022-08-31T00:13:22.271Z,2.20
2022-08-31T00:15:46.965Z,2.00
2022-08-31T00:18:10.950Z,2.10
2022-08-31T00:20:35.408Z,2.45
2022-08-31T00:22:59.035Z,2.33
2022-08-31T00:25:24.117Z,2.10
2022-08-31T00:27:48.197Z,2.00
2022-08-31T00:30:13.429Z,1.77
2022-08-31T00:32:37.225Z,1.95
2022-08-31T00:35:01.113Z,2.15
2022-08-31T00:37:24.814Z,1.85
2022-08-31T00:39:48.521Z,2.05
2022-08-31T00:42:14.616Z,2.40
2022-08-31T00:44:38.404Z,2.63
2022-08-31T00:47:02.062Z,2.10
2022-08-31T00:49:30.739Z,2.17
2022-08-31T00:51:58.493Z,2.00
2022-08-31T00:54:29.819Z,1.77
2022-08-31T00:56:54.588Z,1.83
2022-08-31T00:59:22.171Z,1.98
2022-08-31T01:01:46.383Z,2.08
2022-08-31T01:04:10.559Z,2.15
2022-08-31T01:06:34.845Z,1.90
2022-08-31T01:09:01.491Z,1.90
2022-08-31T01:11:25.637Z,2.22
2022-08-31T01:13:50.249Z,1.80
2022-08-31T01:16:23.118Z,1.75
2022-08-31T01:18:48.041Z,1.70
2022-08-31T01:21:27.110Z,1.80
2022-08-31T01:23:55.331Z,1.60
2022-08-31T01:26:24.220Z,1.80
2022-08-31T01:28:48.144Z,1.40
2022-08-31T01:31:21.402Z,1.70
2022-08-31T01:33:45.391Z,1.55
2022-08-31T01:36:14.256Z,1.52
2022-08-31T01:38:39.811Z,1.73
2022-08-31T01:41:06.774Z,1.67
2022-08-31T01:43:33.982Z,2.20
2022-08-31T01:45:57.964Z,1.40
2022-08-31T01:48:24.635Z,1.67
2022-08-31T01:50:48.957Z,1.75
2022-08-31T01:53:14.094Z,1.67
2022-08-31T01:55:38.861Z,1.60
2022-08-31T01:58:04.601Z,1.70
2022-08-31T02:00:32.032Z,1.42
2022-08-31T02:02:56.572Z,1.80
2022-08-31T02:05:21.217Z,1.33
2022-08-31T02:07:44.990Z,1.52
2022-08-31T02:10:09.875Z,1.90
2022-08-31T02:12:33.800Z,1.70
2022-08-31T02:14:59.053Z,1.67
2022-08-31T02:17:22.630Z,1.60
2022-08-31T02:19:46.596Z,1.40
2022-08-31T02:22:11.418Z,1.48
2022-08-31T02:24:35.261Z,1.83
2022-08-31T02:27:02.331Z,1.50
2022-08-31T02:29:26.209Z,1.45
2022-08-31T02:31:51.992Z,1.90
2022-08-31T02:34:17.192Z,1.60
2022-08-31T02:36:42.979Z,1.83
2022-08-31T02:39:07.035Z,1.60
2022-08-31T02:41:31.309Z,2.10
2022-08-31T02:43:54.956Z,1.73
2022-08-31T02:46:19.025Z,2.22
2022-08-31T02:49:07.581Z,1.83
2022-08-31T02:51:31.556Z,2.15
2022-08-31T02:53:55.582Z,1.75
2022-08-31T02:56:19.645Z,1.50
2022-08-31T02:58:43.779Z,1.88
2022-08-31T03:01:08.531Z,1.90
2022-08-31T03:03:33.467Z,1.85
2022-08-31T03:05:58.587Z,1.58
2022-08-31T03:08:23.658Z,1.73
2022-08-31T03:10:48.472Z,1.83
2022-08-31T03:13:12.505Z,1.98
2022-08-31T03:15:36.571Z,2.10
2022-08-31T03:18:01.830Z,2.08
2022-08-31T03:20:31.250Z,1.92
2022-08-31T03:22:59.575Z,1.60
2022-08-31T03:25:26.984Z,1.77
2022-08-31T03:27:51.064Z,1.92
2022-08-31T03:30:19.310Z,1.88
2022-08-31T03:32:52.975Z,2.05
2022-08-31T03:35:21.286Z,1.80
2022-08-31T03:37:46.605Z,1.60
2022-08-31T03:40:13.035Z,2.38
2022-08-31T03:42:37.275Z,1.80
2022-08-31T03:45:01.579Z,1.80
2022-08-31T03:47:28.543Z,1.85
2022-08-31T03:49:53.421Z,1.70
2022-08-31T03:52:21.883Z,1.60
2022-08-31T03:54:54.021Z,1.80
2022-08-31T03:57:20.372Z,1.58
2022-08-31T03:59:44.173Z,1.55
2022-08-31T04:02:16.807Z,1.60
2022-08-31T04:05:21.461Z,1.77
2022-08-31T04:08:04.548Z,1.83
2022-08-31T04:10:28.690Z,1.75
2022-08-31T04:13:12.569Z,1.52
2022-08-31T04:16:07.887Z,1.85
2022-08-31T04:19:07.984Z,1.60
2022-08-31T04:21:36.913Z,1.88
2022-08-31T04:24:02.961Z,1.50
2022-08-31T04:26:31.339Z,1.77
2022-08-31T04:29:01.317Z,1.60
2022-08-31T04:31:29.353Z,2.00
2022-08-31T04:33:57.441Z,1.70
2022-08-31T04:36:25.504Z,1.70
2022-08-31T04:38:55.467Z,1.65
2022-08-31T04:41:23.898Z,1.90
2022-08-31T04:43:53.675Z,2.00
2022-08-31T04:46:23.435Z,1.67
2022-08-31T04:48:49.436Z,1.88
2022-08-31T04:51:17.799Z,2.05
2022-08-31T04:53:45.286Z,1.80
2022-08-31T04:56:15.336Z,1.80
2022-08-31T04:58:40.853Z,1.85
2022-08-31T05:01:06.093Z,1.98
2022-08-31T05:03:53.371Z,1.77
2022-08-31T05:06:21.752Z,1.90
2022-08-31T05:08:47.302Z,1.95
2022-08-31T05:11:15.193Z,1.80
2022-08-31T05:13:40.253Z,1.80
2022-08-31T05:16:06.493Z,1.65
2022-08-31T05:18:32.825Z,1.70
2022-08-31T05:20:59.459Z,2.10
2022-08-31T05:23:25.426Z,1.80
2022-08-31T05:25:51.303Z,1.98
2022-08-31T05:28:17.339Z,1.73
2022-08-31T05:30:48.147Z,1.92
2022-08-31T05:33:33.079Z,2.10
2022-08-31T05:36:02.738Z,1.95
2022-08-31T05:38:29.337Z,2.10
2022-08-31T05:40:56.712Z,2.22
2022-08-31T05:43:21.281Z,1.90
2022-08-31T05:45:46.765Z,2.17
2022-08-31T05:48:13.184Z,2.00
2022-08-31T05:50:41.700Z,2.28
2022-08-31T05:53:08.061Z,1.67
2022-08-31T05:55:33.664Z,1.90
2022-08-31T05:57:58.512Z,1.90
2022-08-31T06:00:25.114Z,1.95
2022-08-31T06:02:59.081Z,2.10
2022-08-31T06:05:24.257Z,2.20
2022-08-31T06:07:51.020Z,2.28
2022-08-31T06:10:19.657Z,2.08
2022-08-31T06:12:45.053Z,2.30
2022-08-31T06:15:11.922Z,1.90
2022-08-31T06:17:36.630Z,2.33
2022-08-31T06:20:02.077Z,2.10
2022-08-31T06:22:29.662Z,1.98
2022-08-31T06:24:55.152Z,2.13
2022-08-31T06:27:23.334Z,2.13
2022-08-31T06:29:49.642Z,2.05
2022-08-31T06:32:14.347Z,2.10
2022-08-31T06:34:49.037Z,2.40
2022-08-31T06:37:53.444Z,2.38
2022-08-31T06:40:39.794Z,2.20
2022-08-31T06:43:30.996Z,2.30
2022-08-31T06:46:03.351Z,2.78
2022-08-31T06:48:51.171Z,2.22
2022-08-31T06:51:16.927Z,2.17
2022-08-31T06:53:44.200Z,2.13
2022-08-31T06:56:29.198Z,2.40
2022-08-31T06:59:14.982Z,2.00
2022-08-31T07:02:04.517Z,2.47
2022-08-31T07:04:33.912Z,2.42
2022-08-31T07:06:59.385Z,2.97
2022-08-31T07:09:25.297Z,2.22
2022-08-31T07:11:53.109Z,1.90
2022-08-31T07:14:23.626Z,2.10
2022-08-31T07:16:51.620Z,2.53
2022-08-31T07:19:19.503Z,2.47
2022-08-31T07:21:48.019Z,2.55
2022-08-31T07:24:16.884Z,2.22
2022-08-31T07:26:45.525Z,2.30
2022-08-31T07:29:15.168Z,2.50
2022-08-31T07:31:44.821Z,2.22
2022-08-31T07:34:11.458Z,3.17
2022-08-31T07:37:06.878Z,2.20
2022-08-31T07:39:51.920Z,2.53
2022-08-31T07:42:25.116Z,2.33
2022-08-31T07:44:53.792Z,2.45
2022-08-31T07:47:22.912Z,2.65
2022-08-31T07:49:51.467Z,2.60
2022-08-31T07:52:36.506Z,2.50
2022-08-31T07:55:09.729Z,2.85
2022-08-31T07:57:59.029Z,3.10
2022-08-31T08:00:27.118Z,2.72
2022-08-31T08:02:55.061Z,3.47
2022-08-31T08:05:35.515Z,2.40
2022-08-31T08:08:25.475Z,2.80
2022-08-31T08:11:02.523Z,2.60
2022-08-31T08:13:42.996Z,2.45
2022-08-31T08:16:35.199Z,2.50
2022-08-31T08:19:17.305Z,3.30
2022-08-31T08:21:47.095Z,3.30
2022-08-31T08:24:13.011Z,2.42
2022-08-31T08:26:38.797Z,2.67
2022-08-31T08:29:14.687Z,2.70
2022-08-31T08:31:43.086Z,2.38
2022-08-31T08:34:09.069Z,3.15
2022-08-31T08:36:37.511Z,2.70
2022-08-31T08:39:04.576Z,2.85
2022-08-31T08:41:31.126Z,2.60
2022-08-31T08:44:00.994Z,2.50
2022-08-31T08:46:35.523Z,2.90
2022-08-31T08:49:08.690Z,2.90
2022-08-31T08:51:41.028Z,3.00
2022-08-31T08:54:13.432Z,3.95
2022-08-31T08:56:42.581Z,3.55
2022-08-31T08:59:12.183Z,3.35
2022-08-31T09:01:39.072Z,4.25
2022-08-31T09:04:17.560Z,4.05
2022-08-31T09:07:35.002Z,3.03
2022-08-31T09:10:11.978Z,3.60
2022-08-31T09:12:52.407Z,4.20
2022-08-31T09:15:45.661Z,4.05
2022-08-31T09:18:33.238Z,3.03
2022-08-31T09:21:07.513Z,3.13
2022-08-31T09:23:50.496Z,3.08
2022-08-31T09:26:20.186Z,2.63
2022-08-31T09:28:58.276Z,2.67
2022-08-31T09:31:37.766Z,3.50
2022-08-31T09:34:05.254Z,3.20
2022-08-31T09:36:41.465Z,3.30
2022-08-31T09:39:33.136Z,2.80
2022-08-31T09:42:16.676Z,3.10
2022-08-31T09:44:44.943Z,2.90
2022-08-31T09:47:38.701Z,3.35
2022-08-31T09:50:04.940Z,2.67
2022-08-31T09:52:49.790Z,2.90
2022-08-31T09:55:25.628Z,2.90
2022-08-31T09:57:59.356Z,3.00
2022-08-31T10:00:36.854Z,3.05
2022-08-31T10:03:21.259Z,3.53
2022-08-31T10:05:46.520Z,3.05
2022-08-31T10:08:30.509Z,3.40
2022-08-31T10:10:58.730Z,3.13
2022-08-31T10:13:34.748Z,3.03
2022-08-31T10:16:05.739Z,3.20
2022-08-31T10:18:40.221Z,2.90
2022-08-31T10:21:11.782Z,2.90
2022-08-31T10:23:45.484Z,3.08
2022-08-31T10:26:20.650Z,3.25
2022-08-31T10:28:53.000Z,3.15
2022-08-31T10:31:24.673Z,3.00
2022-08-31T10:34:16.485Z,2.90
2022-08-31T10:36:44.864Z,3.10
2022-08-31T10:39:32.959Z,2.88
2022-08-31T10:42:05.834Z,3.13
2022-08-31T10:44:39.776Z,2.72
2022-08-31T10:47:06.749Z,3.03
2022-08-31T10:49:40.042Z,3.42
2022-08-31T10:52:14.653Z,3.08
2022-08-31T10:54:51.222Z,3.30
2022-08-31T10:57:40.885Z,2.97
2022-08-31T11:00:10.500Z,3.10
2022-08-31T11:02:59.805Z,3.25
2022-08-31T11:05:36.604Z,3.13
2022-08-31T11:08:25.788Z,3.20
2022-08-31T11:10:53.520Z,3.35
2022-08-31T11:13:48.640Z,2.97
2022-08-31T11:16:40.555Z,3.20
2022-08-31T11:19:38.499Z,3.38
2022-08-31T11:22:34.824Z,3.80
2022-08-31T11:25:27.501Z,3.50
2022-08-31T11:27:57.025Z,3.75
2022-08-31T11:30:26.812Z,3.33
2022-08-31T11:32:56.615Z,3.20
2022-08-31T11:36:05.660Z,3.90
2022-08-31T11:38:52.748Z,3.08
2022-08-31T11:41:39.471Z,3.35
2022-08-31T11:44:06.683Z,3.70
2022-08-31T11:47:08.590Z,4.20
2022-08-31T11:49:50.627Z,3.90
2022-08-31T11:52:43.425Z,3.88
2022-08-31T11:55:30.051Z,4.28
2022-08-31T11:58:34.915Z,3.40
2022-08-31T12:01:30.796Z,3.45
2022-08-31T12:04:04.148Z,3.42
2022-08-31T12:07:11.808Z,3.40
2022-08-31T12:10:30.451Z,3.40
2022-08-31T12:13:27.993Z,2.92
2022-08-31T12:16:52.448Z,3.53
2022-08-31T12:19:52.904Z,3.03
2022-08-31T12:23:10.418Z,3.70
2022-08-31T12:25:44.060Z,3.38
2022-08-31T12:28:18.531Z,3.38
2022-08-31T12:30:54.197Z,3.10
2022-08-31T12:33:21.420Z,3.20
2022-08-31T12:35:49.582Z,3.22
2022-08-31T12:38:22.222Z,3.50
2022-08-31T12:40:48.730Z,3.03
2022-08-31T12:43:18.553Z,2.95
2022-08-31T12:46:30.812Z,3.03
2022-08-31T12:49:28.171Z,3.20
2022-08-31T12:52:01.063Z,3.50
2022-08-31T12:55:12.683Z,3.28
2022-08-31T12:58:02.506Z,3.40
2022-08-31T13:00:29.154Z,3.13
2022-08-31T13:02:55.679Z,3.50
2022-08-31T13:05:22.682Z,3.20
2022-08-31T13:07:47.641Z,3.40
2022-08-31T13:10:15.332Z,3.00
2022-08-31T13:12:40.243Z,2.65
2022-08-31T13:15:04.722Z,3.08
2022-08-31T13:17:31.719Z,2.92
2022-08-31T13:20:00.735Z,3.88
2022-08-31T13:22:33.530Z,3.50
2022-08-31T13:25:16.465Z,3.35
2022-08-31T13:27:49.400Z,3.45
2022-08-31T13:30:19.698Z,3.35
2022-08-31T13:32:47.151Z,3.28
2022-08-31T13:35:15.377Z,3.30
2022-08-31T13:37:43.961Z,3.72
2022-08-31T13:40:14.212Z,3.67
2022-08-31T13:42:41.408Z,3.53
2022-08-31T13:45:09.217Z,3.00
2022-08-31T13:47:45.192Z,3.20
2022-08-31T13:50:24.585Z,4.00
2022-08-31T13:53:09.640Z,3.40
2022-08-31T13:55:40.053Z,3.80
2022-08-31T13:58:08.991Z,3.58
2022-08-31T14:00:41.558Z,3.20
2022-08-31T14:03:33.168Z,3.70
2022-08-31T14:05:58.974Z,2.80
2022-08-31T14:08:25.070Z,4.05
2022-08-31T14:10:55.870Z,3.45
2022-08-31T14:13:27.836Z,3.00
2022-08-31T14:15:56.503Z,3.05
2022-08-31T14:18:28.060Z,3.50
2022-08-31T14:21:23.688Z,2.92
2022-08-31T14:23:51.715Z,3.03
2022-08-31T14:26:17.864Z,3.10
2022-08-31T14:28:44.317Z,2.92
2022-08-31T14:31:33.919Z,2.67
2022-08-31T14:34:24.565Z,2.72
2022-08-31T14:36:55.408Z,3.15
2022-08-31T14:39:19.512Z,2.80
2022-08-31T14:41:43.942Z,2.90
2022-08-31T14:44:09.362Z,2.85
2022-08-31T14:46:33.190Z,2.65
2022-08-31T14:48:57.853Z,2.90
2022-08-31T14:51:22.508Z,3.20
2022-08-31T14:53:47.635Z,3.00
2022-08-31T14:56:21.302Z,2.90
2022-08-31T14:58:49.843Z,3.25
2022-08-31T15:01:13.904Z,2.70
2022-08-31T15:03:40.312Z,3.20
2022-08-31T15:06:05.171Z,3.15
2022-08-31T15:08:37.824Z,2.90
2022-08-31T15:11:05.347Z,2.80
2022-08-31T15:13:33.919Z,3.00
2022-08-31T15:15:57.485Z,3.03
2022-08-31T15:18:25.801Z,3.00
2022-08-31T15:20:49.549Z,3.00
2022-08-31T15:23:16.158Z,2.75
2022-08-31T15:25:39.777Z,2.92
2022-08-31T15:28:05.524Z,2.70
2022-08-31T15:30:30.018Z,2.42
2022-08-31T15:32:55.051Z,3.00
2022-08-31T15:35:23.570Z,2.83
2022-08-31T15:37:57.100Z,3.10
2022-08-31T15:40:21.604Z,2.70
2022-08-31T15:42:46.157Z,2.35
2022-08-31T15:45:12.340Z,3.00
2022-08-31T15:47:55.967Z,2.42
2022-08-31T15:50:23.415Z,2.67
2022-08-31T15:52:50.984Z,3.08
2022-08-31T15:55:17.592Z,2.78
2022-08-31T15:57:41.703Z,3.22
2022-08-31T16:00:07.827Z,2.90
2022-08-31T16:02:36.040Z,2.83
2022-08-31T16:04:59.673Z,2.80
2022-08-31T16:07:23.872Z,3.58
2022-08-31T16:09:47.417Z,2.80
2022-08-31T16:12:12.418Z,2.88
2022-08-31T16:14:38.345Z,2.60
2022-08-31T16:17:02.017Z,2.55
2022-08-31T16:19:35.173Z,2.15
2022-08-31T16:21:59.448Z,2.47
2022-08-31T16:24:25.151Z,2.67
2022-08-31T16:26:54.279Z,2.72
2022-08-31T16:29:22.280Z,2.97
2022-08-31T16:31:46.971Z,2.70
2022-08-31T16:34:11.294Z,2.20
2022-08-31T16:36:37.284Z,2.38
2022-08-31T16:39:02.107Z,2.60
2022-08-31T16:41:30.582Z,2.55
2022-08-31T16:44:18.094Z,2.50
2022-08-31T16:46:40.837Z,2.60
2022-08-31T16:49:22.880Z,2.40
2022-08-31T16:51:50.574Z,2.22
2022-08-31T16:54:14.404Z,2.45
2022-08-31T16:56:41.814Z,2.10
2022-08-31T16:59:15.365Z,2.30
2022-08-31T17:01:46.585Z,1.95
2022-08-31T17:04:24.619Z,1.92
2022-08-31T17:06:59.945Z,2.17
2022-08-31T17:09:26.140Z,2.30
2022-08-31T17:11:57.281Z,1.92
2022-08-31T17:14:27.128Z,2.15
2022-08-31T17:16:52.151Z,2.30
2022-08-31T17:19:19.784Z,2.30
2022-08-31T17:21:50.586Z,2.05
2022-08-31T17:24:16.092Z,2.35
2022-08-31T17:26:39.888Z,1.90
2022-08-31T17:29:06.918Z,2.00
2022-08-31T17:31:34.493Z,2.10
2022-08-31T17:33:58.852Z,1.98
2022-08-31T17:36:23.368Z,2.00
2022-08-31T17:38:48.693Z,1.42
2022-08-31T17:41:13.855Z,1.92
2022-08-31T17:43:39.572Z,1.67
2022-08-31T17:46:04.967Z,2.00
2022-08-31T17:48:28.612Z,1.73
2022-08-31T17:50:54.095Z,1.88
2022-08-31T17:53:17.734Z,1.90
2022-08-31T17:55:41.281Z,1.70
2022-08-31T17:58:06.694Z,1.60
2022-08-31T18:00:32.665Z,1.73
2022-08-31T18:02:56.575Z,1.50
2022-08-31T18:05:20.733Z,1.52
2022-08-31T18:07:46.022Z,1.40
2022-08-31T18:10:12.627Z,1.30
2022-08-31T18:12:41.247Z,1.70
2022-08-31T18:15:08.246Z,1.60
2022-08-31T18:17:31.931Z,1.25
2022-08-31T18:19:55.791Z,1.55
2022-08-31T18:22:19.922Z,1.40
2022-08-31T18:24:44.309Z,1.88
2022-08-31T18:27:10.618Z,1.50
2022-08-31T18:29:35.325Z,1.42
2022-08-31T18:32:04.293Z,1.48
2022-08-31T18:34:28.478Z,1.70
2022-08-31T18:36:55.404Z,1.60
2022-08-31T18:39:47.631Z,1.55
2022-08-31T18:42:26.493Z,1.60
2022-08-31T18:45:08.058Z,1.33
2022-08-31T18:47:33.037Z,1.30
2022-08-31T18:49:58.677Z,1.40
2022-08-31T18:52:22.770Z,1.52
2022-08-31T18:54:49.031Z,1.80
2022-08-31T18:57:12.634Z,1.50
2022-08-31T18:59:36.462Z,1.65
2022-08-31T19:02:00.409Z,1.65
2022-08-31T19:04:25.881Z,1.50
2022-08-31T19:06:49.467Z,1.40
2022-08-31T19:09:14.231Z,1.55
2022-08-31T19:11:46.724Z,1.40
2022-08-31T19:14:11.012Z,1.48
2022-08-31T19:16:34.726Z,1.40
2022-08-31T19:18:58.938Z,1.33
2022-08-31T19:21:27.492Z,1.73
2022-08-31T19:23:51.885Z,1.58
2022-08-31T19:26:26.888Z,1.50
2022-08-31T19:28:50.811Z,1.50
2022-08-31T19:31:15.485Z,1.42
2022-08-31T19:33:39.171Z,1.13
2022-08-31T19:36:04.863Z,1.42
2022-08-31T19:38:30.201Z,1.30
2022-08-31T19:40:53.815Z,1.45
2022-08-31T19:46:16.444Z,1.80
2022-08-31T19:48:47.186Z,1.80
2022-08-31T19:51:11.014Z,1.30
2022-08-31T19:53:36.155Z,1.40
2022-08-31T19:56:08.932Z,1.52
2022-08-31T19:58:32.573Z,1.27
2022-08-31T20:01:04.291Z,1.30
2022-08-31T20:03:28.338Z,1.70
2022-08-31T20:05:54.086Z,1.52
2022-08-31T20:08:17.831Z,1.65
2022-08-31T20:10:47.831Z,1.60
2022-08-31T20:13:12.693Z,1.42
2022-08-31T20:15:42.431Z,1.48
2022-08-31T20:18:07.615Z,1.48
2022-08-31T20:20:33.466Z,1.40
2022-08-31T20:22:57.261Z,1.50
2022-08-31T20:25:25.381Z,1.73
2022-08-31T20:27:50.690Z,1.58
2022-08-31T20:30:17.623Z,1.65
2022-08-31T20:32:41.385Z,1.63
2022-08-31T20:35:06.754Z,1.77
2022-08-31T20:37:30.329Z,1.30
2022-08-31T20:39:53.971Z,1.50
2022-08-31T20:42:17.653Z,2.08
2022-08-31T20:44:49.011Z,1.30
2022-08-31T20:47:30.002Z,1.35
2022-08-31T20:49:56.407Z,1.73
2022-08-31T20:52:19.888Z,1.30
2022-08-31T20:54:44.236Z,1.40
2022-08-31T20:57:10.230Z,1.65
2022-08-31T20:59:34.539Z,1.52
2022-08-31T21:02:04.168Z,1.60
2022-08-31T21:04:29.103Z,1.35
2022-08-31T21:06:53.310Z,1.40
2022-08-31T21:09:17.123Z,1.30
2022-08-31T21:11:43.640Z,1.25
2022-08-31T21:14:07.716Z,1.40
2022-08-31T21:16:33.062Z,1.30
2022-08-31T21:18:58.034Z,1.60
2022-08-31T21:21:21.569Z,1.55
2022-08-31T21:23:46.387Z,1.42
2022-08-31T21:26:10.108Z,1.30
2022-08-31T21:28:34.259Z,1.20
2022-08-31T21:31:15.377Z,1.40
2022-08-31T21:33:39.145Z,1.25
2022-08-31T21:36:07.675Z,1.42
2022-08-31T21:38:32.999Z,1.30
2022-08-31T21:40:56.546Z,1.20
2022-08-31T21:43:20.960Z,1.40
2022-08-31T21:45:44.577Z,1.27
2022-08-31T21:48:09.035Z,1.30
2022-08-31T21:50:32.556Z,1.30
2022-08-31T21:53:00.370Z,1.33
2022-08-31T21:55:24.310Z,1.42
2022-08-31T21:57:51.511Z,1.45
2022-08-31T22:00:29.032Z,1.48
2022-08-31T22:02:54.806Z,1.23
2022-08-31T22:05:18.468Z,1.27
2022-08-31T22:07:42.402Z,1.70
2022-08-31T22:10:10.102Z,1.40
2022-08-31T22:12:33.966Z,1.98
2022-08-31T22:14:59.001Z,1.40
2022-08-31T22:17:48.239Z,1.70
2022-08-31T22:20:17.742Z,1.80
2022-08-31T22:22:42.794Z,2.00
2022-08-31T22:25:12.671Z,1.83
2022-08-31T22:27:36.456Z,1.77
2022-08-31T22:30:00.638Z,1.80
2022-08-31T22:32:24.645Z,2.30
2022-08-31T22:34:48.263Z,2.30
2022-08-31T22:37:14.227Z,3.08
2022-08-31T22:39:38.764Z,3.28
2022-08-31T22:42:04.077Z,2.65
2022-08-31T22:44:32.352Z,2.10
2022-08-31T22:46:57.361Z,2.15
2022-08-31T22:49:21.115Z,2.58
2022-08-31T22:51:46.972Z,2.35
2022-08-31T22:54:11.496Z,2.15
2022-08-31T22:56:38.997Z,2.15
2022-08-31T22:59:08.031Z,2.40
2022-08-31T23:01:36.036Z,2.10
2022-08-31T23:04:05.252Z,2.40
2022-08-31T23:06:30.749Z,2.10
2022-08-31T23:08:57.219Z,2.03
2022-08-31T23:11:22.596Z,2.35
2022-08-31T23:13:56.612Z,2.10
2022-08-31T23:16:24.983Z,2.30
2022-08-31T23:18:49.250Z,2.88
2022-08-31T23:21:12.960Z,3.28
2022-08-31T23:23:37.215Z,2.80
2022-08-31T23:26:08.774Z,3.50
2022-08-31T23:28:32.464Z,3.90
2022-08-31T23:30:56.782Z,3.97
2022-08-31T23:33:22.519Z,3.13
2022-08-31T23:35:47.315Z,2.83
2022-08-31T23:38:10.928Z,2.35
2022-08-31T23:40:34.976Z,2.55
2022-08-31T23:42:58.672Z,1.80
2022-08-31T23:45:22.343Z,2.03
2022-08-31T23:47:47.459Z,1.83
2022-08-31T23:50:14.790Z,1.90
2022-08-31T23:52:41.577Z,2.22
2022-08-31T23:55:07.050Z,1.90
2022-08-31T23:57:32.790Z,2.25
